createdAt,value
2024-02-15T00:00:35.752Z,101088.47
2024-02-15T00:03:07.677Z,101093.09
2024-02-15T00:05:37.609Z,101092.41
2024-02-15T00:08:07.148Z,101100.47
2024-02-15T00:10:35.703Z,101094.97
2024-02-15T00:13:07.469Z,101096.84
2024-02-15T00:15:36.298Z,101096.16
2024-02-15T00:18:05.155Z,101094.44
2024-02-15T00:20:34.899Z,101093.59
2024-02-15T00:23:03.097Z,101093.59
2024-02-15T00:25:32.405Z,101089.13
2024-02-15T00:28:02.940Z,101083.63
2024-02-15T00:30:33.003Z,101081.06
2024-02-15T00:33:02.266Z,101084.66
2024-02-15T00:35:31.137Z,101081.91
2024-02-15T00:38:00.151Z,101076.25
2024-02-15T00:40:28.368Z,101082.94
2024-02-15T00:42:56.611Z,101080.19
2024-02-15T00:45:24.955Z,101078.47
2024-02-15T00:47:55.348Z,101081.22
2024-02-15T00:50:24.822Z,101075.91
2024-02-15T00:52:53.079Z,101082.41
2024-02-15T00:55:21.394Z,101083.28
2024-02-15T00:57:49.788Z,101083.28
2024-02-15T01:00:20.216Z,101086.16
2024-02-15T01:02:48.520Z,101088.03
2024-02-15T01:05:19.599Z,101086.16
2024-02-15T01:07:49.468Z,101090.78
2024-02-15T01:10:18.313Z,101100.88
2024-02-15T01:12:46.578Z,101109.09
2024-02-15T01:15:15.790Z,101101.03
2024-02-15T01:17:44.258Z,101106.53
2024-02-15T01:20:13.480Z,101109.28
2024-02-15T01:22:45.387Z,101109.28
2024-02-15T01:25:13.598Z,101102.94
2024-02-15T01:27:42.074Z,101102.94
2024-02-15T01:30:12.028Z,101111.00
2024-02-15T01:32:43.310Z,101099.31
2024-02-15T01:35:12.260Z,101095.88
2024-02-15T01:37:42.030Z,101093.13
2024-02-15T01:40:14.035Z,101096.91
2024-02-15T01:42:42.325Z,101100.34
2024-02-15T01:45:12.982Z,101111.31
2024-02-15T01:47:42.381Z,101104.97
2024-02-15T01:50:12.456Z,101105.13
2024-02-15T01:52:43.560Z,101096.06
2024-02-15T01:55:12.084Z,101096.06
2024-02-15T01:57:41.149Z,101094.31
2024-02-15T02:00:13.853Z,101100.66
2024-02-15T02:02:46.647Z,101099.66
2024-02-15T02:05:15.298Z,101097.94
2024-02-15T02:07:46.512Z,101105.13
2024-02-15T02:10:15.458Z,101094.31
2024-02-15T02:12:43.638Z,101093.47
2024-02-15T02:15:12.950Z,101097.22
2024-02-15T02:17:42.018Z,101094.50
2024-02-15T02:20:14.952Z,101092.78
2024-02-15T02:22:47.528Z,101091.91
2024-02-15T02:25:18.445Z,101088.31
2024-02-15T02:27:47.110Z,101095.50
2024-02-15T02:30:19.977Z,101086.44
2024-02-15T02:32:48.513Z,101094.66
2024-02-15T02:35:17.202Z,101096.53
2024-02-15T02:37:46.175Z,101099.28
2024-02-15T02:40:16.212Z,101092.94
2024-02-15T02:42:52.402Z,101092.03
2024-02-15T02:45:24.334Z,101088.31
2024-02-15T02:47:54.382Z,101088.44
2024-02-15T02:50:25.023Z,101085.69
2024-02-15T02:52:53.960Z,101081.06
2024-02-15T02:55:24.875Z,101084.84
2024-02-15T02:57:54.110Z,101086.56
2024-02-15T03:00:22.456Z,101083.13
2024-02-15T03:02:50.676Z,101087.56
2024-02-15T03:05:22.097Z,101080.38
2024-02-15T03:07:52.838Z,101083.28
2024-02-15T03:10:23.020Z,101086.88
2024-02-15T03:12:51.152Z,101084.13
2024-02-15T03:15:20.433Z,101072.31
2024-02-15T03:17:50.401Z,101081.41
2024-02-15T03:20:23.310Z,101082.41
2024-02-15T03:22:59.284Z,101075.06
2024-02-15T03:25:30.645Z,101087.91
2024-02-15T03:28:04.097Z,101084.47
2024-02-15T03:30:34.966Z,101090.81
2024-02-15T03:33:04.533Z,101093.38
2024-02-15T03:35:33.168Z,101098.00
2024-02-15T03:38:01.897Z,101101.94
2024-02-15T03:40:33.436Z,101099.03
2024-02-15T03:43:01.890Z,101099.03
2024-02-15T03:45:31.861Z,101106.41
2024-02-15T03:48:00.214Z,101106.25
2024-02-15T03:50:30.161Z,101106.41
2024-02-15T03:53:00.962Z,101111.03
2024-02-15T03:55:31.480Z,101113.78
2024-02-15T03:58:00.957Z,101103.66
2024-02-15T04:00:29.042Z,101109.16
2024-02-15T04:02:57.904Z,101104.69
2024-02-15T04:05:26.165Z,101103.81
2024-02-15T04:07:54.748Z,101101.22
2024-02-15T04:10:23.477Z,101102.22
2024-02-15T04:12:52.170Z,101108.44
2024-02-15T04:15:22.018Z,101104.97
2024-02-15T04:17:56.969Z,101102.41
2024-02-15T04:20:26.116Z,101107.03
2024-02-15T04:22:55.887Z,101101.53
2024-02-15T04:25:28.954Z,101104.28
2024-02-15T04:27:58.740Z,101101.66
2024-02-15T04:30:28.678Z,101113.50
2024-02-15T04:32:56.989Z,101110.75
2024-02-15T04:35:25.415Z,101114.50
2024-02-15T04:37:54.366Z,101114.50
2024-02-15T04:40:22.624Z,101111.94
2024-02-15T04:42:50.822Z,101109.34
2024-02-15T04:45:20.049Z,101102.84
2024-02-15T04:47:54.020Z,101104.88
2024-02-15T04:50:22.540Z,101106.63
2024-02-15T04:52:53.644Z,101101.13
2024-02-15T04:55:23.764Z,101107.47
2024-02-15T04:57:56.227Z,101106.63
2024-02-15T05:00:26.802Z,101102.84
2024-02-15T05:02:56.844Z,101102.84
2024-02-15T05:05:25.903Z,101111.59
2024-02-15T05:07:54.571Z,101112.50
2024-02-15T05:10:23.173Z,101111.31
2024-02-15T05:12:51.907Z,101106.56
2024-02-15T05:15:23.955Z,101117.38
2024-02-15T05:17:52.561Z,101121.50
2024-02-15T05:20:22.112Z,101122.94
2024-02-15T05:22:51.463Z,101119.00
2024-02-15T05:25:24.937Z,101117.81
2024-02-15T05:27:56.405Z,101124.53
2024-02-15T05:30:25.593Z,101119.63
2024-02-15T05:32:55.478Z,101126.50
2024-02-15T05:35:30.745Z,101120.16
2024-02-15T05:37:58.866Z,101110.75
2024-02-15T05:40:27.361Z,101121.53
2024-02-15T05:43:03.267Z,101118.63
2024-02-15T05:45:37.203Z,101121.09
2024-02-15T05:48:10.153Z,101108.06
2024-02-15T05:50:39.957Z,101112.53
2024-02-15T05:53:09.104Z,101106.03
2024-02-15T05:55:39.055Z,101110.47
2024-02-15T05:58:09.265Z,101110.47
2024-02-15T06:00:40.014Z,101111.19
2024-02-15T06:03:10.388Z,101123.72
2024-02-15T06:05:41.098Z,101118.09
2024-02-15T06:08:09.778Z,101116.19
2024-02-15T06:10:38.199Z,101123.41
2024-02-15T06:13:06.421Z,101118.78
2024-02-15T06:15:34.874Z,101113.28
2024-02-15T06:18:04.147Z,101114.00
2024-02-15T06:20:32.850Z,101126.69
2024-02-15T06:23:02.962Z,101133.03
2024-02-15T06:25:31.367Z,101123.09
2024-02-15T06:28:03.669Z,101129.44
2024-02-15T06:30:49.510Z,101130.44
2024-02-15T06:33:49.867Z,101128.72
2024-02-15T06:36:35.656Z,101135.41
2024-02-15T06:39:23.149Z,101132.84
2024-02-15T06:41:51.563Z,101138.44
2024-02-15T06:44:20.608Z,101136.91
2024-02-15T06:46:48.787Z,101133.47
2024-02-15T06:49:17.622Z,101149.06
2024-02-15T06:51:50.550Z,101149.56
2024-02-15T06:54:20.470Z,101145.78
2024-02-15T06:56:48.744Z,101144.06
2024-02-15T06:59:17.818Z,101146.47
2024-02-15T07:01:46.371Z,101144.44
2024-02-15T07:04:14.631Z,101140.50
2024-02-15T07:06:46.333Z,101146.56
2024-02-15T07:09:16.146Z,101147.41
2024-02-15T07:11:50.435Z,101147.94
2024-02-15T07:14:20.707Z,101137.66
2024-02-15T07:16:52.584Z,101150.19
2024-02-15T07:19:23.813Z,101147.44
2024-02-15T07:21:52.416Z,101146.75
2024-02-15T07:24:21.496Z,101145.56
2024-02-15T07:26:53.890Z,101142.13
2024-02-15T07:29:22.437Z,101143.00
2024-02-15T07:31:50.628Z,101153.09
2024-02-15T07:34:19.332Z,101153.09
2024-02-15T07:36:47.839Z,101154.81
2024-02-15T07:39:24.358Z,101148.16
2024-02-15T07:41:54.485Z,101147.13
2024-02-15T07:44:23.375Z,101149.88
2024-02-15T07:46:52.593Z,101153.47
2024-02-15T07:49:21.064Z,101165.47
2024-02-15T07:51:54.315Z,101160.84
2024-02-15T07:54:23.396Z,101163.75
2024-02-15T07:56:52.907Z,101170.09
2024-02-15T07:59:22.798Z,101169.06
2024-02-15T08:01:51.775Z,101165.19
2024-02-15T08:04:22.399Z,101173.25
2024-02-15T08:06:52.046Z,101170.34
2024-02-15T08:09:22.865Z,101176.53
2024-02-15T08:11:51.660Z,101173.78
2024-02-15T08:14:21.814Z,101177.22
2024-02-15T08:16:51.509Z,101169.84
2024-02-15T08:19:20.012Z,101169.69
2024-02-15T08:21:51.637Z,101164.19
2024-02-15T08:24:19.996Z,101165.22
2024-02-15T08:26:48.699Z,101164.19
2024-02-15T08:29:19.048Z,101167.09
2024-02-15T08:31:47.931Z,101153.38
2024-02-15T08:34:19.562Z,101158.16
2024-02-15T08:36:49.062Z,101165.38
2024-02-15T08:39:18.114Z,101162.63
2024-02-15T08:41:47.415Z,101158.88
2024-02-15T08:44:18.184Z,101167.78
2024-02-15T08:46:47.732Z,101161.16
2024-02-15T08:49:18.704Z,101163.88
2024-02-15T08:51:47.076Z,101167.50
2024-02-15T08:54:15.371Z,101156.69
2024-02-15T08:56:44.775Z,101162.16
2024-02-15T08:59:13.161Z,101158.41
2024-02-15T09:01:41.483Z,101159.56
2024-02-15T09:04:09.734Z,101159.56
2024-02-15T09:06:39.351Z,101156.13
2024-02-15T09:09:07.686Z,101154.22
2024-02-15T09:11:36.757Z,101156.44
2024-02-15T09:14:05.146Z,101153.53
2024-02-15T09:16:34.886Z,101150.25
2024-02-15T09:19:03.738Z,101147.00
2024-02-15T09:21:32.040Z,101143.50
2024-02-15T09:24:01.648Z,101150.03
2024-02-15T09:26:30.356Z,101157.56
2024-02-15T09:28:58.873Z,101152.41
2024-02-15T09:31:27.197Z,101163.56
2024-02-15T09:33:55.764Z,101167.31
2024-02-15T09:36:23.985Z,101174.00
2024-02-15T09:38:52.201Z,101166.06
2024-02-15T09:41:22.320Z,101170.84
2024-02-15T09:43:50.470Z,101180.97
2024-02-15T09:46:18.623Z,101174.63
2024-02-15T09:48:52.113Z,101167.56
2024-02-15T09:51:23.094Z,101170.31
2024-02-15T09:53:51.258Z,101162.94
2024-02-15T09:56:25.290Z,101162.94
2024-02-15T09:58:53.822Z,101166.53
2024-02-15T10:01:25.267Z,101168.44
2024-02-15T10:03:54.207Z,101172.03
2024-02-15T10:06:23.838Z,101170.16
2024-02-15T10:08:53.182Z,101161.91
2024-02-15T10:11:22.772Z,101167.72
2024-02-15T10:13:51.272Z,101172.38
2024-02-15T10:16:26.046Z,101168.75
2024-02-15T10:18:54.682Z,101165.28
2024-02-15T10:21:31.385Z,101166.31
2024-02-15T10:24:08.648Z,101172.81
2024-02-15T10:26:39.403Z,101165.59
2024-02-15T10:29:12.139Z,101174.84
2024-02-15T10:31:42.681Z,101165.94
2024-02-15T10:34:12.494Z,101169.69
2024-02-15T10:36:40.993Z,101162.66
2024-02-15T10:39:21.334Z,101170.72
2024-02-15T10:41:54.208Z,101165.94
2024-02-15T10:44:24.564Z,101166.78
2024-02-15T10:46:54.648Z,101164.75
2024-02-15T10:49:24.649Z,101163.44
2024-02-15T10:51:57.532Z,101162.53
2024-02-15T10:54:43.928Z,101157.22
2024-02-15T10:57:17.888Z,101155.34
2024-02-15T10:59:56.544Z,101160.53
2024-02-15T11:02:33.472Z,101157.06
2024-02-15T11:05:11.213Z,101157.06
2024-02-15T11:07:40.128Z,101147.81
2024-02-15T11:10:12.334Z,101152.47
2024-02-15T11:12:48.408Z,101150.56
2024-02-15T11:15:51.126Z,101153.84
2024-02-15T11:18:50.816Z,101145.63
2024-02-15T11:21:19.559Z,101146.47
2024-02-15T11:23:47.989Z,101154.00
2024-02-15T11:26:49.470Z,101147.81
2024-02-15T11:29:56.814Z,101145.09
2024-02-15T11:32:40.786Z,101134.13
2024-02-15T11:35:13.821Z,101131.50
2024-02-15T11:38:05.513Z,101127.03
2024-02-15T11:41:06.724Z,101131.13
2024-02-15T11:44:00.159Z,101126.19
2024-02-15T11:46:33.846Z,101137.31
2024-02-15T11:49:04.795Z,101122.56
2024-02-15T11:51:38.639Z,101126.19
2024-02-15T11:54:11.326Z,101121.38
2024-02-15T11:57:11.323Z,101124.47
2024-02-15T12:00:16.028Z,101122.56
2024-02-15T12:03:04.046Z,101118.09
2024-02-15T12:05:49.723Z,101116.56
2024-02-15T12:08:35.449Z,101116.72
2024-02-15T12:18:43.562Z,101088.13
2024-02-15T12:21:14.901Z,101091.69
2024-02-15T12:23:43.474Z,101087.53
2024-02-15T12:26:15.342Z,101083.00
2024-02-15T12:28:47.119Z,101078.38
2024-02-15T12:31:16.247Z,101076.16
2024-02-15T12:33:48.040Z,101080.47
2024-02-15T12:36:18.382Z,101080.84
2024-02-15T12:38:47.344Z,101081.22
2024-02-15T12:41:22.395Z,101080.13
2024-02-15T12:43:55.691Z,101080.78
2024-02-15T12:46:23.960Z,101082.31
2024-02-15T12:48:54.115Z,101077.47
2024-02-15T12:51:22.728Z,101076.19
2024-02-15T12:53:51.098Z,101081.31
2024-02-15T12:56:25.288Z,101073.09
2024-02-15T12:58:53.550Z,101070.06
2024-02-15T13:01:22.541Z,101065.09
2024-02-15T13:03:50.797Z,101067.28
2024-02-15T13:06:24.908Z,101066.19
2024-02-15T13:08:53.321Z,101068.59
2024-02-15T13:11:21.541Z,101065.78
2024-02-15T13:13:49.856Z,101066.66
2024-02-15T13:16:18.099Z,101059.28
2024-02-15T13:18:48.346Z,101052.91
2024-02-15T13:21:18.398Z,101046.63
2024-02-15T13:23:49.185Z,101048.25
2024-02-15T13:26:21.093Z,101044.66
2024-02-15T13:28:50.739Z,101040.13
2024-02-15T13:31:18.953Z,101046.22
2024-02-15T13:33:48.583Z,101039.94
2024-02-15T13:36:17.103Z,101035.38
2024-02-15T13:38:46.753Z,101037.13
2024-02-15T13:41:14.964Z,101021.00
2024-02-15T13:43:43.309Z,101033.72
2024-02-15T13:46:11.534Z,101025.72
2024-02-15T13:48:40.010Z,101031.34
2024-02-15T13:51:10.347Z,101025.94
2024-02-15T13:53:38.854Z,101026.91
2024-02-15T13:56:10.749Z,101030.72
2024-02-15T13:58:38.924Z,101028.00
2024-02-15T14:01:07.561Z,101030.94
2024-02-15T14:03:35.936Z,101039.13
2024-02-15T14:06:05.358Z,101024.94
2024-02-15T14:08:33.638Z,101037.72
2024-02-15T14:11:01.884Z,101028.75
2024-02-15T14:13:31.763Z,101034.25
2024-02-15T14:16:01.025Z,101033.41
2024-02-15T14:18:29.491Z,101032.53
2024-02-15T14:20:57.763Z,101032.63
2024-02-15T14:23:28.617Z,101032.63
2024-02-15T14:26:01.407Z,101028.28
2024-02-15T14:28:30.852Z,101031.94
2024-02-15T14:31:16.616Z,101028.06
2024-02-15T14:33:44.960Z,101028.06
2024-02-15T14:36:15.569Z,101028.19
2024-02-15T14:38:43.886Z,101025.53
2024-02-15T14:41:14.747Z,101022.94
2024-02-15T14:43:45.562Z,101020.34
2024-02-15T14:46:13.759Z,101021.09
2024-02-15T14:48:42.447Z,101018.41
2024-02-15T14:51:11.496Z,101018.41
2024-02-15T14:53:39.900Z,101020.94
2024-02-15T14:56:08.998Z,101018.97
2024-02-15T14:58:37.323Z,101022.44
2024-02-15T15:01:10.656Z,101016.28
2024-02-15T15:03:40.127Z,101016.16
2024-02-15T15:06:28.484Z,101018.88
2024-02-15T15:09:16.685Z,101019.84
2024-02-15T15:12:03.609Z,101026.22
2024-02-15T15:14:32.046Z,101020.81
2024-02-15T15:17:03.612Z,101020.81
2024-02-15T15:19:32.847Z,101014.44
2024-02-15T15:22:01.173Z,101009.88
2024-02-15T15:24:29.514Z,101010.09
2024-02-15T15:26:57.960Z,101000.16
2024-02-15T15:29:26.330Z,101005.63
2024-02-15T15:31:54.769Z,100999.38
2024-02-15T15:34:24.550Z,100998.72
2024-02-15T15:36:55.582Z,101007.59
2024-02-15T15:39:25.728Z,101005.09
2024-02-15T15:41:55.787Z,101012.34
2024-02-15T15:44:28.258Z,101016.91
2024-02-15T15:46:57.929Z,101006.19
2024-02-15T15:49:27.730Z,101021.53
2024-02-15T15:51:56.119Z,101017.09
2024-02-15T15:54:24.461Z,101016.34
2024-02-15T15:56:54.348Z,101017.31
2024-02-15T15:59:22.640Z,101021.84
2024-02-15T16:01:51.778Z,101023.78
2024-02-15T16:04:20.119Z,101011.34
2024-02-15T16:06:49.795Z,101019.56
2024-02-15T16:09:18.048Z,101012.53
2024-02-15T16:11:48.858Z,101007.97
2024-02-15T16:14:19.623Z,101012.53
2024-02-15T16:16:48.669Z,101016.19
2024-02-15T16:19:16.889Z,101005.50
2024-02-15T16:21:45.226Z,101013.69
2024-02-15T16:24:14.932Z,101020.84
2024-02-15T16:26:43.320Z,101023.56
2024-02-15T16:29:11.476Z,101030.81
2024-02-15T16:31:39.946Z,101018.34
2024-02-15T16:34:08.460Z,101023.84
2024-02-15T16:36:36.834Z,101026.75
2024-02-15T16:39:05.231Z,101022.31
2024-02-15T16:41:35.051Z,101021.47
2024-02-15T16:44:03.638Z,101013.34
2024-02-15T16:46:32.699Z,101029.69
2024-02-15T16:49:01.384Z,101026.22
2024-02-15T16:51:30.143Z,101032.50
2024-02-15T16:53:58.601Z,101028.06
2024-02-15T16:56:27.399Z,101018.19
2024-02-15T16:58:57.605Z,101026.28
2024-02-15T17:01:26.589Z,101020.81
2024-02-15T17:03:56.766Z,101022.53
2024-02-15T17:06:25.500Z,101026.09
2024-02-15T17:08:57.065Z,101018.09
2024-02-15T17:11:25.658Z,101021.69
2024-02-15T17:13:56.488Z,101021.69
2024-02-15T17:16:27.874Z,101021.69
2024-02-15T17:18:56.576Z,101022.66
2024-02-15T17:21:25.532Z,101024.44
2024-02-15T17:23:53.956Z,101021.69
2024-02-15T17:26:22.427Z,101022.53
2024-02-15T17:28:50.622Z,101018.88
2024-02-15T17:31:18.859Z,101019.72
2024-02-15T17:33:48.697Z,101027.94
2024-02-15T17:36:17.670Z,101024.28
2024-02-15T17:38:46.076Z,101026.00
2024-02-15T17:41:14.771Z,101020.69
2024-02-15T17:43:43.257Z,101022.44
2024-02-15T17:46:11.499Z,101017.03
2024-02-15T17:48:39.780Z,101018.75
2024-02-15T17:51:09.455Z,101019.72
2024-02-15T17:53:38.403Z,101024.16
2024-02-15T17:56:07.458Z,101022.44
2024-02-15T17:58:36.240Z,101024.16
2024-02-15T18:01:07.712Z,101022.44
2024-02-15T18:03:35.984Z,101033.13
2024-02-15T18:06:04.721Z,101021.47
2024-02-15T18:08:34.829Z,101027.84
2024-02-15T18:11:03.168Z,101026.88
2024-02-15T18:13:31.467Z,101022.31
2024-02-15T18:16:00.033Z,101023.31
2024-02-15T18:18:29.692Z,101025.13
2024-02-15T18:20:58.130Z,101025.13
2024-02-15T18:23:26.346Z,101026.97
2024-02-15T18:25:55.967Z,101021.69
2024-02-15T18:28:28.719Z,101021.56
2024-02-15T18:30:57.851Z,101018.00
2024-02-15T18:33:28.599Z,101021.69
2024-02-15T18:35:59.557Z,101017.25
2024-02-15T18:38:28.840Z,101022.53
2024-02-15T18:40:58.697Z,101023.50
2024-02-15T18:43:27.642Z,101021.69
2024-02-15T18:45:55.995Z,101021.69
2024-02-15T18:48:24.396Z,101019.03
2024-02-15T18:50:52.854Z,101020.88
2024-02-15T18:53:21.941Z,101016.44
2024-02-15T18:55:50.260Z,101008.44
2024-02-15T18:58:23.087Z,101014.72
2024-02-15T19:00:58.162Z,101007.25
2024-02-15T19:03:27.465Z,101005.09
2024-02-15T19:05:56.387Z,101013.97
2024-02-15T19:08:28.242Z,101007.56
2024-02-15T19:10:56.919Z,100995.78
2024-02-15T19:13:28.444Z,101000.22
2024-02-15T19:15:57.996Z,101001.97
2024-02-15T19:18:29.564Z,101007.47
2024-02-15T19:21:01.585Z,101002.06
2024-02-15T19:23:30.485Z,100993.94
2024-02-15T19:26:01.222Z,100983.13
2024-02-15T19:28:32.115Z,100989.53
2024-02-15T19:31:03.034Z,100995.78
2024-02-15T19:33:44.275Z,101002.06
2024-02-15T19:36:25.764Z,100993.94
2024-02-15T19:38:56.261Z,100992.13
2024-02-15T19:41:32.360Z,100988.66
2024-02-15T19:44:04.833Z,100996.75
2024-02-15T19:46:34.839Z,100995.03
2024-02-15T19:49:05.270Z,100997.75
2024-02-15T19:51:35.787Z,100990.50
2024-02-15T19:54:06.246Z,100989.63
2024-02-15T19:56:38.784Z,100993.41
2024-02-15T19:59:12.335Z,100997.84
2024-02-15T20:01:45.008Z,101001.53
2024-02-15T20:04:13.735Z,100995.56
2024-02-15T20:06:46.858Z,101002.59
2024-02-15T20:09:22.309Z,100993.50
2024-02-15T20:11:55.058Z,100999.78
2024-02-15T20:14:32.874Z,100997.19
2024-02-15T20:17:04.030Z,100999.69
2024-02-15T20:19:34.863Z,100991.56
2024-02-15T20:22:03.973Z,100996.97
2024-02-15T20:24:34.828Z,100998.72
2024-02-15T20:27:05.596Z,100995.25
2024-02-15T20:29:38.534Z,100986.16
2024-02-15T20:32:08.934Z,100983.34
2024-02-15T20:34:38.289Z,100984.22
2024-02-15T20:37:09.272Z,100982.50
2024-02-15T20:39:38.751Z,100978.91
2024-02-15T20:42:09.777Z,100972.66
2024-02-15T20:44:44.360Z,100977.09
2024-02-15T20:47:14.812Z,100990.50
2024-02-15T20:49:46.613Z,100987.78
2024-02-15T20:52:19.488Z,100995.91
2024-02-15T20:54:48.127Z,100989.53
2024-02-15T20:57:18.184Z,100994.81
2024-02-15T20:59:48.383Z,100996.56
2024-02-15T21:02:19.017Z,101002.06
2024-02-15T21:04:47.466Z,100993.94
2024-02-15T21:07:16.190Z,101001.97
2024-02-15T21:09:45.004Z,100997.53
2024-02-15T21:12:16.162Z,100993.09
2024-02-15T21:14:44.829Z,100989.53
2024-02-15T21:17:16.620Z,100992.22
2024-02-15T21:19:45.554Z,100984.13
2024-02-15T21:22:14.599Z,100986.81
2024-02-15T21:24:43.391Z,100988.53
2024-02-15T21:27:12.080Z,100982.38
2024-02-15T21:29:43.545Z,100979.69
2024-02-15T21:32:16.187Z,100975.13
2024-02-15T21:34:44.851Z,100974.16
2024-02-15T21:37:15.316Z,100978.59
2024-02-15T21:39:45.636Z,100967.78
2024-02-15T21:42:14.879Z,100975.13
2024-02-15T21:44:45.039Z,100978.72
2024-02-15T21:47:15.817Z,100977.84
2024-02-15T21:49:44.818Z,100968.75
2024-02-15T21:52:15.172Z,100966.91
2024-02-15T21:54:44.622Z,100973.31
2024-02-15T21:57:15.811Z,100969.72
2024-02-15T21:59:47.817Z,100971.56
2024-02-15T22:02:19.616Z,100971.69
2024-02-15T22:04:53.905Z,100966.28
2024-02-15T22:07:24.560Z,100965.28
2024-02-15T22:09:53.982Z,100953.50
2024-02-15T22:12:22.838Z,100950.81
2024-02-15T22:14:53.091Z,100944.44
2024-02-15T22:17:23.512Z,100941.72
2024-02-15T22:19:52.016Z,100938.16
2024-02-15T22:22:20.929Z,100944.44
2024-02-15T22:24:49.665Z,100940.00
2024-02-15T22:27:20.072Z,100931.88
2024-02-15T22:29:48.933Z,100929.19
2024-02-15T22:32:21.874Z,100924.66
2024-02-15T22:34:52.427Z,100926.47
2024-02-15T22:37:20.941Z,100930.06
2024-02-15T22:39:49.396Z,100914.91
2024-02-15T22:42:17.908Z,100921.19
2024-02-15T22:44:50.296Z,100915.88
2024-02-15T22:47:21.421Z,100916.09
2024-02-15T22:49:51.710Z,100921.50
2024-02-15T22:52:20.742Z,100919.56
2024-02-15T22:54:50.202Z,100916.84
2024-02-15T22:57:19.184Z,100917.84
2024-02-15T22:59:47.865Z,100930.38
2024-02-15T23:02:18.144Z,100916.09
2024-02-15T23:04:48.906Z,100916.00
2024-02-15T23:07:24.300Z,100909.72
2024-02-15T23:09:54.452Z,100908.09
2024-02-15T23:12:24.680Z,100912.44
2024-02-15T23:14:53.634Z,100917.84
2024-02-15T23:17:26.366Z,100901.63
2024-02-15T23:19:54.689Z,100903.84
2024-02-15T23:22:26.660Z,100900.84
2024-02-15T23:24:58.029Z,100888.22
2024-02-15T23:27:29.648Z,100898.81
2024-02-15T23:29:59.729Z,100891.66
2024-02-15T23:32:29.086Z,100882.81
2024-02-15T23:34:57.750Z,100893.72
2024-02-15T23:37:45.354Z,100890.03
2024-02-15T23:40:33.245Z,100886.38
2024-02-15T23:43:02.287Z,100882.81
2024-02-15T23:45:33.953Z,100881.94
2024-02-15T23:48:03.196Z,100885.50
2024-02-15T23:50:33.970Z,100890.03
2024-02-15T23:53:05.332Z,100890.16
2024-02-15T23:55:35.682Z,100883.84
2024-02-15T23:58:04.368Z,100889.25
